Carbon County Regional Airport

About
Name: Carbon County Regional Airport
Identifier:  PUC/KPUC
Local Time:  19. Aug 04:15 MDT
Location
Flights per Day
0 flights
Distance: 167km (104mi)
Punctuality
-100% (0 flights per day delayed)
Delay Average: 104 minutes
Current Weather
 20 C (Humidity: 15%)
  10kt (18km/h / 11mph) from 10°
  16km (10 mi.)
 
 METAR KPUC 190853Z AUTO 01010KT 10SM CLR 20/M07 A3011 RMK AO2 SLP087 T02001072 53002

Current Flights

Departures
Number Departure To Airline
Arrivals
Number Arrival From Airline

Current Delays

Departures
N/A
Arrivals
N/A

Destinations

Top Destinations
Airport Flights
per week
Seats
per week
  Salt Lake City (SLC) 6 - 0 0
  Vernal (VEL) 3 - 0 0
  Placerville (PVF) 2 - 0 0
  Dallas (ADS) 0 - 0 0
  Denver (APA) 0 - 0 0

Airlines & Planes

Top Airlines
Airline Flights
per Day
Seats
per Day
  Ameriflight 1 -
  Flybe Nordic 0 -
Aerolink Uganda 0 -
  National Airlines 0 -
Executive Flight Services 0 -
Top Plane Types
Model Flights Seats
Beech C-99 Airliner 1.5/day - 0
Cessna C182 0.3/day - 0